sensor_id;sensor_type;location;lat;lon;timestamp;P1;durP1;ratioP1;P2;durP2;ratioP2
43670;SDS011;29267;50.906;7.248;2023-07-02T00:02:20;9.70;;;3.72;;
43670;SDS011;29267;50.906;7.248;2023-07-02T00:04:46;13.90;;;4.55;;
43670;SDS011;29267;50.906;7.248;2023-07-02T00:07:12;8.23;;;3.00;;
43670;SDS011;29267;50.906;7.248;2023-07-02T00:09:38;7.57;;;3.08;;
43670;SDS011;29267;50.906;7.248;2023-07-02T00:12:03;8.65;;;3.60;;
43670;SDS011;29267;50.906;7.248;2023-07-02T00:14:29;8.93;;;3.83;;
43670;SDS011;29267;50.906;7.248;2023-07-02T00:16:55;10.07;;;4.28;;
43670;SDS011;29267;50.906;7.248;2023-07-02T00:19:20;10.45;;;4.18;;
43670;SDS011;29267;50.906;7.248;2023-07-02T00:21:46;5.55;;;3.53;;
43670;SDS011;29267;50.906;7.248;2023-07-02T00:24:12;8.57;;;4.30;;
43670;SDS011;29267;50.906;7.248;2023-07-02T00:26:38;8.77;;;4.40;;
43670;SDS011;29267;50.906;7.248;2023-07-02T00:29:05;9.02;;;4.20;;
43670;SDS011;29267;50.906;7.248;2023-07-02T00:31:32;10.02;;;4.65;;
43670;SDS011;29267;50.906;7.248;2023-07-02T00:33:58;12.55;;;4.28;;
43670;SDS011;29267;50.906;7.248;2023-07-02T00:36:26;6.93;;;3.95;;
43670;SDS011;29267;50.906;7.248;2023-07-02T00:38:51;10.10;;;4.07;;
43670;SDS011;29267;50.906;7.248;2023-07-02T00:41:17;8.95;;;4.25;;
43670;SDS011;29267;50.906;7.248;2023-07-02T00:43:43;8.30;;;3.90;;
43670;SDS011;29267;50.906;7.248;2023-07-02T00:46:11;10.55;;;3.92;;
43670;SDS011;29267;50.906;7.248;2023-07-02T00:48:51;7.55;;;4.38;;
43670;SDS011;29267;50.906;7.248;2023-07-02T00:51:19;8.80;;;3.92;;
43670;SDS011;29267;50.906;7.248;2023-07-02T00:53:52;7.53;;;3.70;;
43670;SDS011;29267;50.906;7.248;2023-07-02T00:56:20;8.75;;;4.13;;
43670;SDS011;29267;50.906;7.248;2023-07-02T00:58:47;6.20;;;3.50;;
43670;SDS011;29267;50.906;7.248;2023-07-02T01:01:19;8.55;;;3.97;;
43670;SDS011;29267;50.906;7.248;2023-07-02T01:03:59;8.48;;;4.10;;
43670;SDS011;29267;50.906;7.248;2023-07-02T01:06:31;11.70;;;4.27;;
43670;SDS011;29267;50.906;7.248;2023-07-02T01:09:01;15.60;;;4.07;;
43670;SDS011;29267;50.906;7.248;2023-07-02T01:14:21;11.05;;;4.22;;
43670;SDS011;29267;50.906;7.248;2023-07-02T01:16:53;7.20;;;4.00;;
43670;SDS011;29267;50.906;7.248;2023-07-02T01:19:39;11.45;;;3.58;;
43670;SDS011;29267;50.906;7.248;2023-07-02T01:22:18;8.32;;;4.18;;
43670;SDS011;29267;50.906;7.248;2023-07-02T01:24:48;5.47;;;3.58;;
43670;SDS011;29267;50.906;7.248;2023-07-02T01:27:14;8.35;;;3.85;;
43670;SDS011;29267;50.906;7.248;2023-07-02T01:29:41;7.97;;;4.15;;
43670;SDS011;29267;50.906;7.248;2023-07-02T01:32:09;10.43;;;4.53;;
43670;SDS011;29267;50.906;7.248;2023-07-02T01:34:35;7.65;;;3.38;;
43670;SDS011;29267;50.906;7.248;2023-07-02T01:37:02;8.82;;;4.15;;
43670;SDS011;29267;50.906;7.248;2023-07-02T01:39:28;9.10;;;4.22;;
43670;SDS011;29267;50.906;7.248;2023-07-02T01:41:55;9.35;;;4.97;;
43670;SDS011;29267;50.906;7.248;2023-07-02T01:44:31;13.27;;;4.57;;
43670;SDS011;29267;50.906;7.248;2023-07-02T01:46:57;8.43;;;4.38;;
43670;SDS011;29267;50.906;7.248;2023-07-02T01:49:24;12.93;;;4.30;;
43670;SDS011;29267;50.906;7.248;2023-07-02T01:51:50;12.65;;;5.43;;
43670;SDS011;29267;50.906;7.248;2023-07-02T01:54:17;8.07;;;4.65;;
43670;SDS011;29267;50.906;7.248;2023-07-02T01:56:43;11.63;;;4.72;;
43670;SDS011;29267;50.906;7.248;2023-07-02T01:59:08;13.13;;;4.90;;
43670;SDS011;29267;50.906;7.248;2023-07-02T02:01:34;8.40;;;5.05;;
43670;SDS011;29267;50.906;7.248;2023-07-02T02:04:00;7.30;;;4.55;;
43670;SDS011;29267;50.906;7.248;2023-07-02T02:06:25;9.77;;;4.53;;
43670;SDS011;29267;50.906;7.248;2023-07-02T02:08:51;8.73;;;4.70;;
43670;SDS011;29267;50.906;7.248;2023-07-02T02:11:17;8.25;;;4.80;;
43670;SDS011;29267;50.906;7.248;2023-07-02T02:13:42;11.73;;;4.55;;
43670;SDS011;29267;50.906;7.248;2023-07-02T02:16:08;8.63;;;4.63;;
43670;SDS011;29267;50.906;7.248;2023-07-02T02:18:34;20.30;;;6.32;;
43670;SDS011;29267;50.906;7.248;2023-07-02T02:20:59;11.55;;;5.28;;
43670;SDS011;29267;50.906;7.248;2023-07-02T02:23:25;12.32;;;5.60;;
43670;SDS011;29267;50.906;7.248;2023-07-02T02:25:50;11.82;;;5.57;;
43670;SDS011;29267;50.906;7.248;2023-07-02T02:28:16;14.32;;;5.38;;
43670;SDS011;29267;50.906;7.248;2023-07-02T02:30:42;16.10;;;6.45;;
43670;SDS011;29267;50.906;7.248;2023-07-02T02:33:07;10.98;;;5.15;;
43670;SDS011;29267;50.906;7.248;2023-07-02T02:35:33;21.38;;;7.53;;
43670;SDS011;29267;50.906;7.248;2023-07-02T02:38:01;15.15;;;5.32;;
43670;SDS011;29267;50.906;7.248;2023-07-02T02:40:27;13.00;;;6.53;;
43670;SDS011;29267;50.906;7.248;2023-07-02T02:42:53;10.32;;;5.90;;
43670;SDS011;29267;50.906;7.248;2023-07-02T02:45:19;15.90;;;5.53;;
43670;SDS011;29267;50.906;7.248;2023-07-02T02:47:45;15.13;;;6.13;;
43670;SDS011;29267;50.906;7.248;2023-07-02T02:50:12;16.27;;;6.57;;
43670;SDS011;29267;50.906;7.248;2023-07-02T02:52:38;10.82;;;5.43;;
43670;SDS011;29267;50.906;7.248;2023-07-02T02:55:05;13.82;;;6.47;;
43670;SDS011;29267;50.906;7.248;2023-07-02T02:57:32;16.52;;;6.32;;
43670;SDS011;29267;50.906;7.248;2023-07-02T02:59:58;17.33;;;5.47;;
43670;SDS011;29267;50.906;7.248;2023-07-02T03:02:23;12.75;;;6.35;;
43670;SDS011;29267;50.906;7.248;2023-07-02T03:04:49;8.98;;;5.38;;
43670;SDS011;29267;50.906;7.248;2023-07-02T03:07:15;15.57;;;5.57;;
43670;SDS011;29267;50.906;7.248;2023-07-02T03:09:41;17.52;;;5.30;;
43670;SDS011;29267;50.906;7.248;2023-07-02T03:12:06;10.63;;;5.28;;
43670;SDS011;29267;50.906;7.248;2023-07-02T03:14:32;8.93;;;5.10;;
43670;SDS011;29267;50.906;7.248;2023-07-02T03:16:58;14.27;;;5.80;;
43670;SDS011;29267;50.906;7.248;2023-07-02T03:19:24;10.88;;;5.45;;
43670;SDS011;29267;50.906;7.248;2023-07-02T03:21:49;15.63;;;5.82;;
43670;SDS011;29267;50.906;7.248;2023-07-02T03:24:15;10.18;;;6.10;;
43670;SDS011;29267;50.906;7.248;2023-07-02T03:26:41;9.75;;;5.30;;
43670;SDS011;29267;50.906;7.248;2023-07-02T03:29:07;12.88;;;5.30;;
43670;SDS011;29267;50.906;7.248;2023-07-02T03:31:33;11.23;;;6.00;;
43670;SDS011;29267;50.906;7.248;2023-07-02T03:34:09;17.13;;;6.55;;
43670;SDS011;29267;50.906;7.248;2023-07-02T03:36:35;15.48;;;6.22;;
43670;SDS011;29267;50.906;7.248;2023-07-02T03:39:01;17.13;;;6.95;;
43670;SDS011;29267;50.906;7.248;2023-07-02T03:41:27;20.10;;;6.88;;
43670;SDS011;29267;50.906;7.248;2023-07-02T03:43:53;15.68;;;6.95;;
43670;SDS011;29267;50.906;7.248;2023-07-02T03:46:19;18.35;;;6.97;;
43670;SDS011;29267;50.906;7.248;2023-07-02T03:48:44;17.02;;;6.45;;
43670;SDS011;29267;50.906;7.248;2023-07-02T03:51:10;14.68;;;5.82;;
43670;SDS011;29267;50.906;7.248;2023-07-02T03:53:39;14.40;;;6.00;;
43670;SDS011;29267;50.906;7.248;2023-07-02T03:56:05;17.30;;;6.80;;
43670;SDS011;29267;50.906;7.248;2023-07-02T03:58:30;12.85;;;6.57;;
43670;SDS011;29267;50.906;7.248;2023-07-02T04:00:56;18.98;;;7.38;;
43670;SDS011;29267;50.906;7.248;2023-07-02T04:03:22;17.38;;;7.85;;
43670;SDS011;29267;50.906;7.248;2023-07-02T04:05:47;19.25;;;7.75;;
43670;SDS011;29267;50.906;7.248;2023-07-02T04:08:14;18.27;;;7.35;;
43670;SDS011;29267;50.906;7.248;2023-07-02T04:10:40;16.38;;;8.10;;
43670;SDS011;29267;50.906;7.248;2023-07-02T04:13:06;19.10;;;9.57;;
43670;SDS011;29267;50.906;7.248;2023-07-02T04:15:32;15.32;;;8.27;;
43670;SDS011;29267;50.906;7.248;2023-07-02T04:17:57;20.23;;;8.18;;
43670;SDS011;29267;50.906;7.248;2023-07-02T04:20:23;15.98;;;7.28;;
43670;SDS011;29267;50.906;7.248;2023-07-02T04:22:50;20.90;;;8.68;;
43670;SDS011;29267;50.906;7.248;2023-07-02T04:25:15;18.48;;;9.98;;
43670;SDS011;29267;50.906;7.248;2023-07-02T04:27:41;17.38;;;8.40;;
43670;SDS011;29267;50.906;7.248;2023-07-02T04:30:11;21.90;;;10.02;;
43670;SDS011;29267;50.906;7.248;2023-07-02T04:32:37;30.27;;;10.88;;
43670;SDS011;29267;50.906;7.248;2023-07-02T04:35:08;24.13;;;9.05;;
43670;SDS011;29267;50.906;7.248;2023-07-02T04:37:35;24.23;;;9.82;;
43670;SDS011;29267;50.906;7.248;2023-07-02T04:40:00;21.70;;;9.63;;
43670;SDS011;29267;50.906;7.248;2023-07-02T04:42:28;17.83;;;8.35;;
43670;SDS011;29267;50.906;7.248;2023-07-02T04:44:56;19.83;;;9.00;;
43670;SDS011;29267;50.906;7.248;2023-07-02T04:47:27;20.45;;;8.73;;
43670;SDS011;29267;50.906;7.248;2023-07-02T04:49:53;23.38;;;9.48;;
43670;SDS011;29267;50.906;7.248;2023-07-02T04:52:19;25.48;;;10.52;;
43670;SDS011;29267;50.906;7.248;2023-07-02T04:54:44;18.83;;;8.40;;
43670;SDS011;29267;50.906;7.248;2023-07-02T04:57:10;24.67;;;9.95;;
43670;SDS011;29267;50.906;7.248;2023-07-02T04:59:36;23.98;;;10.20;;
43670;SDS011;29267;50.906;7.248;2023-07-02T05:02:01;22.90;;;11.68;;
43670;SDS011;29267;50.906;7.248;2023-07-02T05:04:27;32.42;;;12.32;;
43670;SDS011;29267;50.906;7.248;2023-07-02T05:06:53;36.08;;;14.07;;
43670;SDS011;29267;50.906;7.248;2023-07-02T05:09:18;32.95;;;12.25;;
43670;SDS011;29267;50.906;7.248;2023-07-02T05:11:44;26.33;;;12.43;;
43670;SDS011;29267;50.906;7.248;2023-07-02T05:14:09;35.80;;;13.57;;
43670;SDS011;29267;50.906;7.248;2023-07-02T05:16:35;35.50;;;12.25;;
43670;SDS011;29267;50.906;7.248;2023-07-02T05:19:00;33.65;;;14.80;;
43670;SDS011;29267;50.906;7.248;2023-07-02T05:21:26;31.23;;;13.50;;
43670;SDS011;29267;50.906;7.248;2023-07-02T05:23:52;32.05;;;13.65;;
43670;SDS011;29267;50.906;7.248;2023-07-02T05:26:17;30.52;;;14.30;;
43670;SDS011;29267;50.906;7.248;2023-07-02T05:28:43;34.28;;;13.75;;
43670;SDS011;29267;50.906;7.248;2023-07-02T05:31:09;30.88;;;13.23;;
43670;SDS011;29267;50.906;7.248;2023-07-02T05:33:35;39.47;;;14.25;;
43670;SDS011;29267;50.906;7.248;2023-07-02T05:36:00;38.88;;;15.07;;
43670;SDS011;29267;50.906;7.248;2023-07-02T05:38:26;34.15;;;14.98;;
43670;SDS011;29267;50.906;7.248;2023-07-02T05:40:52;29.63;;;13.50;;
43670;SDS011;29267;50.906;7.248;2023-07-02T05:43:17;33.78;;;14.82;;
43670;SDS011;29267;50.906;7.248;2023-07-02T05:45:43;38.35;;;14.30;;
43670;SDS011;29267;50.906;7.248;2023-07-02T05:48:09;34.40;;;14.30;;
43670;SDS011;29267;50.906;7.248;2023-07-02T05:50:34;35.90;;;15.05;;
43670;SDS011;29267;50.906;7.248;2023-07-02T05:53:00;32.60;;;15.40;;
43670;SDS011;29267;50.906;7.248;2023-07-02T05:55:25;34.05;;;15.90;;
43670;SDS011;29267;50.906;7.248;2023-07-02T05:57:51;29.23;;;15.20;;
43670;SDS011;29267;50.906;7.248;2023-07-02T06:00:16;32.67;;;14.35;;
43670;SDS011;29267;50.906;7.248;2023-07-02T06:02:42;38.28;;;15.23;;
43670;SDS011;29267;50.906;7.248;2023-07-02T06:05:11;43.65;;;16.15;;
43670;SDS011;29267;50.906;7.248;2023-07-02T06:07:36;33.05;;;15.13;;
43670;SDS011;29267;50.906;7.248;2023-07-02T06:10:02;36.97;;;16.52;;
43670;SDS011;29267;50.906;7.248;2023-07-02T06:12:28;35.22;;;16.08;;
43670;SDS011;29267;50.906;7.248;2023-07-02T06:14:53;38.75;;;15.63;;
43670;SDS011;29267;50.906;7.248;2023-07-02T06:17:19;34.08;;;17.00;;
43670;SDS011;29267;50.906;7.248;2023-07-02T06:19:46;35.28;;;15.73;;
43670;SDS011;29267;50.906;7.248;2023-07-02T06:22:12;33.88;;;15.43;;
43670;SDS011;29267;50.906;7.248;2023-07-02T06:24:37;44.42;;;14.90;;
43670;SDS011;29267;50.906;7.248;2023-07-02T06:27:03;29.40;;;15.13;;
43670;SDS011;29267;50.906;7.248;2023-07-02T06:29:29;38.33;;;16.20;;
43670;SDS011;29267;50.906;7.248;2023-07-02T06:31:54;33.15;;;15.85;;
43670;SDS011;29267;50.906;7.248;2023-07-02T06:34:20;39.97;;;16.05;;
43670;SDS011;29267;50.906;7.248;2023-07-02T06:36:45;39.47;;;14.73;;
43670;SDS011;29267;50.906;7.248;2023-07-02T06:39:11;38.03;;;16.15;;
43670;SDS011;29267;50.906;7.248;2023-07-02T06:41:37;30.15;;;16.20;;
43670;SDS011;29267;50.906;7.248;2023-07-02T06:44:02;34.03;;;15.07;;
43670;SDS011;29267;50.906;7.248;2023-07-02T06:46:28;35.25;;;15.48;;
43670;SDS011;29267;50.906;7.248;2023-07-02T06:48:54;35.15;;;15.00;;
43670;SDS011;29267;50.906;7.248;2023-07-02T06:51:21;36.80;;;14.82;;
43670;SDS011;29267;50.906;7.248;2023-07-02T06:53:47;33.83;;;14.98;;
43670;SDS011;29267;50.906;7.248;2023-07-02T06:56:13;35.67;;;14.50;;
43670;SDS011;29267;50.906;7.248;2023-07-02T06:58:42;32.78;;;13.98;;
43670;SDS011;29267;50.906;7.248;2023-07-02T07:01:08;30.42;;;14.13;;
43670;SDS011;29267;50.906;7.248;2023-07-02T07:03:37;39.63;;;15.18;;
43670;SDS011;29267;50.906;7.248;2023-07-02T07:06:02;32.85;;;14.48;;
43670;SDS011;29267;50.906;7.248;2023-07-02T07:08:28;32.05;;;13.75;;
43670;SDS011;29267;50.906;7.248;2023-07-02T07:10:54;32.15;;;14.75;;
43670;SDS011;29267;50.906;7.248;2023-07-02T07:13:20;35.15;;;13.65;;
43670;SDS011;29267;50.906;7.248;2023-07-02T07:15:45;36.55;;;13.73;;
43670;SDS011;29267;50.906;7.248;2023-07-02T07:18:11;32.00;;;15.85;;
43670;SDS011;29267;50.906;7.248;2023-07-02T07:20:38;28.38;;;13.05;;
43670;SDS011;29267;50.906;7.248;2023-07-02T07:23:05;28.20;;;11.98;;
43670;SDS011;29267;50.906;7.248;2023-07-02T07:25:31;28.20;;;12.70;;
43670;SDS011;29267;50.906;7.248;2023-07-02T07:27:57;31.08;;;13.38;;
43670;SDS011;29267;50.906;7.248;2023-07-02T07:30:24;35.17;;;13.15;;
43670;SDS011;29267;50.906;7.248;2023-07-02T07:32:50;29.42;;;13.15;;
43670;SDS011;29267;50.906;7.248;2023-07-02T07:35:17;27.88;;;13.23;;
43670;SDS011;29267;50.906;7.248;2023-07-02T07:37:43;32.70;;;12.77;;
43670;SDS011;29267;50.906;7.248;2023-07-02T07:40:09;33.20;;;12.95;;
43670;SDS011;29267;50.906;7.248;2023-07-02T07:42:36;34.08;;;12.73;;
43670;SDS011;29267;50.906;7.248;2023-07-02T07:45:02;32.15;;;12.55;;
43670;SDS011;29267;50.906;7.248;2023-07-02T07:47:28;33.47;;;12.20;;
43670;SDS011;29267;50.906;7.248;2023-07-02T07:49:54;29.60;;;13.18;;
43670;SDS011;29267;50.906;7.248;2023-07-02T07:52:19;28.45;;;12.18;;
43670;SDS011;29267;50.906;7.248;2023-07-02T07:54:45;26.77;;;11.13;;
43670;SDS011;29267;50.906;7.248;2023-07-02T07:57:11;30.23;;;13.55;;
43670;SDS011;29267;50.906;7.248;2023-07-02T07:59:37;27.85;;;12.45;;
43670;SDS011;29267;50.906;7.248;2023-07-02T08:02:02;29.73;;;12.90;;
43670;SDS011;29267;50.906;7.248;2023-07-02T08:04:28;32.75;;;13.38;;
43670;SDS011;29267;50.906;7.248;2023-07-02T08:06:54;27.80;;;12.73;;
43670;SDS011;29267;50.906;7.248;2023-07-02T08:09:20;30.88;;;12.52;;
43670;SDS011;29267;50.906;7.248;2023-07-02T08:11:46;29.80;;;12.20;;
43670;SDS011;29267;50.906;7.248;2023-07-02T08:14:12;29.98;;;12.00;;
43670;SDS011;29267;50.906;7.248;2023-07-02T08:16:38;27.58;;;12.27;;
43670;SDS011;29267;50.906;7.248;2023-07-02T08:19:03;26.13;;;12.07;;
43670;SDS011;29267;50.906;7.248;2023-07-02T08:21:29;37.75;;;13.80;;
43670;SDS011;29267;50.906;7.248;2023-07-02T08:23:55;38.72;;;13.13;;
43670;SDS011;29267;50.906;7.248;2023-07-02T08:26:22;29.50;;;12.00;;
43670;SDS011;29267;50.906;7.248;2023-07-02T08:28:48;27.73;;;11.57;;
43670;SDS011;29267;50.906;7.248;2023-07-02T08:31:13;27.85;;;11.55;;
43670;SDS011;29267;50.906;7.248;2023-07-02T08:33:39;28.08;;;11.82;;
43670;SDS011;29267;50.906;7.248;2023-07-02T08:36:05;24.50;;;11.27;;
43670;SDS011;29267;50.906;7.248;2023-07-02T08:38:30;22.92;;;10.50;;
43670;SDS011;29267;50.906;7.248;2023-07-02T08:40:56;23.40;;;9.73;;
43670;SDS011;29267;50.906;7.248;2023-07-02T08:43:23;26.67;;;11.43;;
43670;SDS011;29267;50.906;7.248;2023-07-02T08:45:50;24.60;;;10.85;;
43670;SDS011;29267;50.906;7.248;2023-07-02T08:48:17;30.95;;;11.80;;
43670;SDS011;29267;50.906;7.248;2023-07-02T08:50:47;21.55;;;9.95;;
43670;SDS011;29267;50.906;7.248;2023-07-02T08:53:14;25.20;;;10.35;;
43670;SDS011;29267;50.906;7.248;2023-07-02T08:55:39;26.33;;;10.90;;
43670;SDS011;29267;50.906;7.248;2023-07-02T08:58:05;27.73;;;10.88;;
43670;SDS011;29267;50.906;7.248;2023-07-02T09:00:31;24.88;;;10.35;;
43670;SDS011;29267;50.906;7.248;2023-07-02T09:03:14;22.08;;;9.73;;
43670;SDS011;29267;50.906;7.248;2023-07-02T09:05:52;22.45;;;10.02;;
43670;SDS011;29267;50.906;7.248;2023-07-02T09:08:24;29.33;;;11.88;;
43670;SDS011;29267;50.906;7.248;2023-07-02T09:10:51;26.55;;;10.23;;
43670;SDS011;29267;50.906;7.248;2023-07-02T09:13:16;22.83;;;10.70;;
43670;SDS011;29267;50.906;7.248;2023-07-02T09:15:42;23.33;;;10.00;;
43670;SDS011;29267;50.906;7.248;2023-07-02T09:18:20;21.25;;;10.75;;
43670;SDS011;29267;50.906;7.248;2023-07-02T09:20:53;26.50;;;11.20;;
43670;SDS011;29267;50.906;7.248;2023-07-02T09:23:19;31.02;;;11.35;;
43670;SDS011;29267;50.906;7.248;2023-07-02T09:25:45;23.75;;;10.35;;
43670;SDS011;29267;50.906;7.248;2023-07-02T09:28:15;28.13;;;11.38;;
43670;SDS011;29267;50.906;7.248;2023-07-02T09:30:59;25.10;;;10.95;;
43670;SDS011;29267;50.906;7.248;2023-07-02T09:33:25;29.65;;;11.68;;
43670;SDS011;29267;50.906;7.248;2023-07-02T09:35:52;29.10;;;10.40;;
43670;SDS011;29267;50.906;7.248;2023-07-02T09:38:18;22.30;;;10.70;;
43670;SDS011;29267;50.906;7.248;2023-07-02T09:40:49;24.63;;;11.05;;
43670;SDS011;29267;50.906;7.248;2023-07-02T09:43:16;25.15;;;11.18;;
43670;SDS011;29267;50.906;7.248;2023-07-02T09:45:46;33.25;;;10.68;;
43670;SDS011;29267;50.906;7.248;2023-07-02T09:48:16;22.85;;;10.90;;
43670;SDS011;29267;50.906;7.248;2023-07-02T09:50:45;23.38;;;10.75;;
43670;SDS011;29267;50.906;7.248;2023-07-02T09:53:13;23.35;;;10.68;;
43670;SDS011;29267;50.906;7.248;2023-07-02T09:55:39;20.35;;;10.70;;
43670;SDS011;29267;50.906;7.248;2023-07-02T09:58:07;23.88;;;11.25;;
43670;SDS011;29267;50.906;7.248;2023-07-02T10:00:33;26.20;;;11.02;;
43670;SDS011;29267;50.906;7.248;2023-07-02T10:02:59;26.50;;;11.90;;
43670;SDS011;29267;50.906;7.248;2023-07-02T10:05:28;27.20;;;10.43;;
43670;SDS011;29267;50.906;7.248;2023-07-02T10:08:11;26.23;;;12.27;;
43670;SDS011;29267;50.906;7.248;2023-07-02T10:10:38;25.92;;;12.02;;
43670;SDS011;29267;50.906;7.248;2023-07-02T10:13:04;32.22;;;12.75;;
43670;SDS011;29267;50.906;7.248;2023-07-02T10:15:30;32.42;;;13.32;;
43670;SDS011;29267;50.906;7.248;2023-07-02T10:18:00;28.88;;;11.68;;
43670;SDS011;29267;50.906;7.248;2023-07-02T10:22:58;26.80;;;12.30;;
43670;SDS011;29267;50.906;7.248;2023-07-02T10:25:27;25.95;;;11.00;;
43670;SDS011;29267;50.906;7.248;2023-07-02T10:27:54;24.60;;;11.15;;
43670;SDS011;29267;50.906;7.248;2023-07-02T10:30:30;25.35;;;11.90;;
43670;SDS011;29267;50.906;7.248;2023-07-02T10:33:06;25.42;;;11.15;;
43670;SDS011;29267;50.906;7.248;2023-07-02T10:35:33;25.17;;;10.15;;
43670;SDS011;29267;50.906;7.248;2023-07-02T10:37:59;26.58;;;11.38;;
43670;SDS011;29267;50.906;7.248;2023-07-02T10:40:25;25.90;;;10.95;;
43670;SDS011;29267;50.906;7.248;2023-07-02T10:42:51;20.58;;;10.45;;
43670;SDS011;29267;50.906;7.248;2023-07-02T10:45:18;26.52;;;10.98;;
43670;SDS011;29267;50.906;7.248;2023-07-02T10:47:45;27.67;;;11.23;;
43670;SDS011;29267;50.906;7.248;2023-07-02T10:50:15;26.15;;;11.52;;
43670;SDS011;29267;50.906;7.248;2023-07-02T10:52:45;24.75;;;11.43;;
43670;SDS011;29267;50.906;7.248;2023-07-02T10:55:21;19.02;;;10.85;;
43670;SDS011;29267;50.906;7.248;2023-07-02T10:57:48;25.33;;;11.48;;
43670;SDS011;29267;50.906;7.248;2023-07-02T11:00:16;24.38;;;11.10;;
43670;SDS011;29267;50.906;7.248;2023-07-02T11:02:42;24.95;;;11.15;;
43670;SDS011;29267;50.906;7.248;2023-07-02T11:05:08;25.70;;;10.75;;
43670;SDS011;29267;50.906;7.248;2023-07-02T11:07:40;20.55;;;10.32;;
43670;SDS011;29267;50.906;7.248;2023-07-02T11:10:07;24.13;;;11.00;;
43670;SDS011;29267;50.906;7.248;2023-07-02T11:12:34;24.27;;;11.25;;
43670;SDS011;29267;50.906;7.248;2023-07-02T11:15:06;27.13;;;12.00;;
43670;SDS011;29267;50.906;7.248;2023-07-02T11:17:33;25.90;;;10.73;;
43670;SDS011;29267;50.906;7.248;2023-07-02T11:19:58;20.92;;;10.23;;
43670;SDS011;29267;50.906;7.248;2023-07-02T11:22:31;24.23;;;9.50;;
43670;SDS011;29267;50.906;7.248;2023-07-02T11:24:58;19.95;;;9.32;;
43670;SDS011;29267;50.906;7.248;2023-07-02T11:27:43;19.45;;;8.73;;
43670;SDS011;29267;50.906;7.248;2023-07-02T11:30:10;23.02;;;9.52;;
43670;SDS011;29267;50.906;7.248;2023-07-02T11:32:52;21.88;;;10.05;;
43670;SDS011;29267;50.906;7.248;2023-07-02T11:35:19;22.83;;;9.98;;
43670;SDS011;29267;50.906;7.248;2023-07-02T11:37:45;25.33;;;9.75;;
43670;SDS011;29267;50.906;7.248;2023-07-02T11:40:13;18.83;;;9.48;;
43670;SDS011;29267;50.906;7.248;2023-07-02T11:42:40;21.30;;;9.27;;
43670;SDS011;29267;50.906;7.248;2023-07-02T11:45:06;23.10;;;9.55;;
43670;SDS011;29267;50.906;7.248;2023-07-02T11:47:32;31.40;;;10.77;;
43670;SDS011;29267;50.906;7.248;2023-07-02T11:49:57;20.50;;;9.90;;
43670;SDS011;29267;50.906;7.248;2023-07-02T11:52:26;27.67;;;10.57;;
43670;SDS011;29267;50.906;7.248;2023-07-02T11:54:51;24.65;;;9.73;;
43670;SDS011;29267;50.906;7.248;2023-07-02T11:57:17;25.30;;;10.38;;
43670;SDS011;29267;50.906;7.248;2023-07-02T11:59:42;21.75;;;9.50;;
43670;SDS011;29267;50.906;7.248;2023-07-02T12:02:08;26.10;;;10.25;;
43670;SDS011;29267;50.906;7.248;2023-07-02T12:04:33;20.27;;;9.77;;
43670;SDS011;29267;50.906;7.248;2023-07-02T12:06:59;24.48;;;10.75;;
43670;SDS011;29267;50.906;7.248;2023-07-02T12:09:26;25.45;;;11.15;;
43670;SDS011;29267;50.906;7.248;2023-07-02T12:11:52;22.48;;;10.50;;
43670;SDS011;29267;50.906;7.248;2023-07-02T12:14:18;24.13;;;10.48;;
43670;SDS011;29267;50.906;7.248;2023-07-02T12:16:44;21.33;;;10.32;;
43670;SDS011;29267;50.906;7.248;2023-07-02T12:19:09;21.75;;;10.15;;
43670;SDS011;29267;50.906;7.248;2023-07-02T12:21:35;24.15;;;11.40;;
43670;SDS011;29267;50.906;7.248;2023-07-02T12:24:01;25.10;;;10.40;;
43670;SDS011;29267;50.906;7.248;2023-07-02T12:26:27;24.05;;;10.55;;
43670;SDS011;29267;50.906;7.248;2023-07-02T12:28:54;24.80;;;9.85;;
43670;SDS011;29267;50.906;7.248;2023-07-02T12:31:19;28.02;;;10.93;;
43670;SDS011;29267;50.906;7.248;2023-07-02T12:33:45;20.98;;;9.55;;
43670;SDS011;29267;50.906;7.248;2023-07-02T12:36:11;24.77;;;10.73;;
43670;SDS011;29267;50.906;7.248;2023-07-02T12:38:37;23.05;;;9.73;;
43670;SDS011;29267;50.906;7.248;2023-07-02T12:41:02;20.75;;;9.48;;
43670;SDS011;29267;50.906;7.248;2023-07-02T12:43:28;26.05;;;9.48;;
43670;SDS011;29267;50.906;7.248;2023-07-02T12:45:54;19.13;;;9.07;;
43670;SDS011;29267;50.906;7.248;2023-07-02T12:48:19;23.42;;;10.00;;
43670;SDS011;29267;50.906;7.248;2023-07-02T12:50:57;20.20;;;8.90;;
43670;SDS011;29267;50.906;7.248;2023-07-02T12:53:24;23.30;;;10.02;;
43670;SDS011;29267;50.906;7.248;2023-07-02T12:55:50;19.85;;;9.32;;
43670;SDS011;29267;50.906;7.248;2023-07-02T12:58:16;20.55;;;8.20;;
43670;SDS011;29267;50.906;7.248;2023-07-02T13:00:42;19.83;;;9.15;;
43670;SDS011;29267;50.906;7.248;2023-07-02T13:03:11;24.60;;;8.98;;
43670;SDS011;29267;50.906;7.248;2023-07-02T13:05:37;22.85;;;8.38;;
43670;SDS011;29267;50.906;7.248;2023-07-02T13:08:03;19.60;;;8.15;;
43670;SDS011;29267;50.906;7.248;2023-07-02T13:10:29;17.35;;;7.57;;
43670;SDS011;29267;50.906;7.248;2023-07-02T13:12:56;18.08;;;7.30;;
43670;SDS011;29267;50.906;7.248;2023-07-02T13:15:22;25.65;;;7.70;;
43670;SDS011;29267;50.906;7.248;2023-07-02T13:17:47;15.52;;;6.13;;
43670;SDS011;29267;50.906;7.248;2023-07-02T13:20:13;15.23;;;6.55;;
43670;SDS011;29267;50.906;7.248;2023-07-02T13:22:39;20.67;;;7.60;;
43670;SDS011;29267;50.906;7.248;2023-07-02T13:25:06;19.17;;;7.07;;
43670;SDS011;29267;50.906;7.248;2023-07-02T13:27:32;13.95;;;6.93;;
43670;SDS011;29267;50.906;7.248;2023-07-02T13:29:58;18.05;;;8.35;;
43670;SDS011;29267;50.906;7.248;2023-07-02T13:32:23;20.83;;;7.90;;
43670;SDS011;29267;50.906;7.248;2023-07-02T13:34:49;12.90;;;6.97;;
43670;SDS011;29267;50.906;7.248;2023-07-02T13:37:15;19.88;;;6.95;;
43670;SDS011;29267;50.906;7.248;2023-07-02T13:39:44;16.63;;;6.80;;
43670;SDS011;29267;50.906;7.248;2023-07-02T13:42:11;18.63;;;7.43;;
43670;SDS011;29267;50.906;7.248;2023-07-02T13:44:37;16.17;;;6.97;;
43670;SDS011;29267;50.906;7.248;2023-07-02T13:47:02;15.68;;;8.40;;
43670;SDS011;29267;50.906;7.248;2023-07-02T13:49:28;26.13;;;7.55;;
43670;SDS011;29267;50.906;7.248;2023-07-02T13:51:54;19.73;;;6.93;;
43670;SDS011;29267;50.906;7.248;2023-07-02T13:54:20;19.25;;;7.32;;
43670;SDS011;29267;50.906;7.248;2023-07-02T13:56:46;19.63;;;8.13;;
43670;SDS011;29267;50.906;7.248;2023-07-02T13:59:12;16.95;;;8.05;;
43670;SDS011;29267;50.906;7.248;2023-07-02T14:01:39;22.77;;;8.55;;
43670;SDS011;29267;50.906;7.248;2023-07-02T14:04:05;20.25;;;8.60;;
43670;SDS011;29267;50.906;7.248;2023-07-02T14:06:30;21.27;;;7.88;;
43670;SDS011;29267;50.906;7.248;2023-07-02T14:08:56;20.20;;;8.77;;
43670;SDS011;29267;50.906;7.248;2023-07-02T14:11:22;17.52;;;8.40;;
43670;SDS011;29267;50.906;7.248;2023-07-02T14:13:49;18.05;;;8.38;;
43670;SDS011;29267;50.906;7.248;2023-07-02T14:16:15;25.38;;;8.40;;
43670;SDS011;29267;50.906;7.248;2023-07-02T14:18:40;25.10;;;8.93;;
43670;SDS011;29267;50.906;7.248;2023-07-02T14:21:06;21.08;;;9.13;;
43670;SDS011;29267;50.906;7.248;2023-07-02T14:23:32;15.73;;;8.02;;
43670;SDS011;29267;50.906;7.248;2023-07-02T14:25:57;18.45;;;7.97;;
43670;SDS011;29267;50.906;7.248;2023-07-02T14:28:23;24.17;;;9.73;;
43670;SDS011;29267;50.906;7.248;2023-07-02T14:31:00;21.83;;;8.45;;
43670;SDS011;29267;50.906;7.248;2023-07-02T14:33:28;19.60;;;8.32;;